Time;durP1;ratioP1;P1;durP2;ratioP2;P2;SDS_P1;SDS_P2;PMS_P1;PMS_P2;Temp;Humidity;BMP_temperature;BMP_pressure;BME280_temperature;BME280_humidity;BME280_pressure;Samples;Min_cycle;Max_cycle;Signal;HPM_P1;HPM_P2
2022/08/31 00:07:26;;;;;;;;;19.00;17.75;;;;;;;;6488745;46;9040;-61
2022/08/31 00:13:29;;;;;;;;;17.25;16.25;;;;;;;;6488662;46;8947;-60
2022/08/31 00:19:32;;;;;;;;;20.67;20.00;;;;;;;;6488364;39;9532;-61
2022/08/31 00:25:40;;;;;;;;;15.33;15.33;;;;;;;;6488717;31;8997;-61
2022/08/31 00:31:42;;;;;;;;;13.00;13.00;;;;;;;;6488597;46;8916;-62
2022/08/31 00:37:45;;;;;;;;;20.25;16.50;;;;;;;;6487640;31;9041;-62
2022/08/31 00:43:53;;;;;;;;;20.00;18.75;;;;;;;;6488156;39;8917;-62
2022/08/31 00:49:58;;;;;;;;;17.75;17.50;;;;;;;;6488142;31;9146;-62
2022/08/31 00:56:01;;;;;;;;;17.50;14.25;;;;;;;;6488963;31;8889;-62
2022/08/31 01:02:10;;;;;;;;;18.50;17.50;;;;;;;;6488034;39;8883;-61
2022/08/31 01:08:15;;;;;;;;;21.25;18.75;;;;;;;;6488860;31;8905;-61
2022/08/31 01:14:18;;;;;;;;;18.25;14.75;;;;;;;;6487868;46;8880;-60
2022/08/31 01:20:45;;;;;;;;;19.00;15.75;;;;;;;;6488590;39;8907;-62
2022/08/31 01:26:53;;;;;;;;;16.75;14.50;;;;;;;;6487344;46;8970;-61
2022/08/31 01:32:58;;;;;;;;;18.25;13.75;;;;;;;;6487992;46;8881;-62
2022/08/31 01:39:03;;;;;;;;;17.25;16.25;;;;;;;;6487823;39;9026;-61
2022/08/31 01:45:09;;;;;;;;;17.75;17.75;;;;;;;;6487362;31;8964;-61
2022/08/31 01:51:22;;;;;;;;;17.75;17.75;;;;;;;;6486608;46;8945;-62
2022/08/31 01:57:28;;;;;;;;;18.00;18.00;;;;;;;;6488532;31;9025;-62
2022/08/31 02:04:11;;;;;;;;;14.75;14.25;;;;;;;;6487346;39;8985;-62
2022/08/31 02:10:14;;;;;;;;;21.75;18.25;;;;;;;;6487911;39;9595;-62
2022/08/31 02:16:22;;;;;;;;;19.50;16.75;;;;;;;;6488015;39;8950;-61
2022/08/31 02:22:26;;;;;;;;;21.75;21.75;;;;;;;;6487772;39;9865;-62
2022/08/31 02:28:29;;;;;;;;;19.25;18.25;;;;;;;;6487709;31;8863;-61
2022/08/31 02:34:33;;;;;;;;;23.00;23.00;;;;;;;;6487676;39;8919;-61
2022/08/31 02:40:40;;;;;;;;;24.67;23.00;;;;;;;;6486627;39;8890;-61
2022/08/31 02:46:44;;;;;;;;;22.67;21.00;;;;;;;;6487450;39;8885;-61
2022/08/31 02:53:03;;;;;;;;;22.67;21.33;;;;;;;;6487551;39;8927;-61
2022/08/31 02:59:07;;;;;;;;;20.25;19.50;;;;;;;;6487513;47;8909;-61
2022/08/31 03:05:11;;;;;;;;;22.75;21.50;;;;;;;;6487882;31;8871;-62
2022/08/31 03:11:15;;;;;;;;;22.00;21.33;;;;;;;;6486297;39;9001;-62
2022/08/31 03:17:22;;;;;;;;;21.50;21.25;;;;;;;;6487369;39;8958;-62
2022/08/31 03:23:26;;;;;;;;;17.00;14.75;;;;;;;;6486839;39;8889;-60
2022/08/31 03:29:29;;;;;;;;;24.75;20.50;;;;;;;;6486228;47;8883;-61
2022/08/31 03:35:49;;;;;;;;;25.67;23.00;;;;;;;;6487012;39;9004;-61
2022/08/31 03:41:55;;;;;;;;;26.33;23.33;;;;;;;;6489066;39;8847;-60
2022/08/31 03:47:58;;;;;;;;;24.33;23.33;;;;;;;;6489249;39;8877;-60
2022/08/31 03:54:02;;;;;;;;;30.67;27.67;;;;;;;;6488252;39;8965;-61
2022/08/31 04:06:52;;;;;;;;;33.00;27.33;;;;;;;;6477873;31;9110;-62
2022/08/31 04:13:16;;;;;;;;;32.00;29.33;;;;;;;;6491254;31;8898;-61
